Time;durP1;ratioP1;P1;durP2;ratioP2;P2;SDS_P1;SDS_P2;PMS_P1;PMS_P2;Temp;Humidity;BMP_temperature;BMP_pressure;BME280_temperature;BME280_humidity;BME280_pressure;Samples;Min_cycle;Max_cycle;Signal;HPM_P1;HPM_P2
2024/05/02 00:00:45;;;;;;;8.80;6.50;;;19.60;44.70;;;-145.48;90.52;99092.06;5020582;28;20309;-79
2024/05/02 00:03:11;;;;;;;7.70;6.90;;;19.60;45.10;;;-145.48;90.30;99079.56;5036762;28;20179;-78
2024/05/02 00:05:37;;;;;;;10.10;7.17;;;19.60;44.90;;;-145.48;90.60;99054.59;5036954;28;20207;-79
2024/05/02 00:08:03;;;;;;;6.50;5.90;;;19.50;45.30;;;-145.48;90.43;99067.06;5053137;28;20187;-79
2024/05/02 00:10:29;;;;;;;7.63;5.97;;;19.50;45.80;;;-145.48;90.20;99123.25;5039906;28;20220;-79
2024/05/02 00:12:55;;;;;;;6.97;6.33;;;19.50;43.30;;;-145.48;90.06;99117.03;5056851;28;20437;-79
2024/05/02 00:15:21;;;;;;;6.43;5.83;;;19.50;43.10;;;-145.48;90.33;99127.44;5056653;28;20599;-79
2024/05/02 00:17:47;;;;;;;6.50;5.90;;;19.50;44.30;;;-145.48;90.38;99092.06;5040043;28;20250;-78
2024/05/02 00:20:14;;;;;;;7.47;6.00;;;19.40;45.20;;;-145.48;90.08;99125.34;5073392;28;20501;-79
2024/05/02 00:22:40;;;;;;;8.00;6.20;;;19.40;44.40;;;-145.48;89.81;99096.22;5069709;28;20590;-78
2024/05/02 00:25:06;;;;;;;5.63;4.90;;;19.40;43.40;;;-145.48;89.98;99087.88;5053163;28;20437;-79
2024/05/02 00:27:32;;;;;;;7.97;5.43;;;19.40;42.90;;;-145.48;90.19;99075.41;5036658;28;20452;-79
2024/05/02 00:29:59;;;;;;;9.73;5.90;;;19.40;43.20;;;-145.48;90.13;99125.34;5053277;28;20563;-79
2024/05/02 00:32:25;;;;;;;5.30;4.90;;;19.40;43.50;;;-145.48;90.00;99117.03;5086704;28;20179;-78
2024/05/02 00:34:51;;;;;;;6.60;5.30;;;19.30;43.60;;;-145.48;90.11;99100.38;5052868;28;20540;-79
2024/05/02 00:37:17;;;;;;;6.53;5.07;;;19.30;43.70;;;-145.48;90.19;99104.53;5053088;28;20882;-78
2024/05/02 00:39:44;;;;;;;6.37;5.50;;;19.30;44.10;;;-145.48;90.30;99142.00;5089736;28;20700;-80
2024/05/02 00:42:11;;;;;;;6.23;5.17;;;19.20;44.80;;;-145.48;90.37;99133.66;5039633;28;20926;-80
2024/05/02 00:44:37;;;;;;;5.07;4.67;;;19.30;45.20;;;-145.48;89.33;99125.34;5056110;28;20436;-80
2024/05/02 00:47:04;;;;;;;8.07;5.17;;;19.20;40.10;;;-145.48;89.44;99108.69;5056449;28;20421;-80
2024/05/02 00:49:32;;;;;;;5.87;5.37;;;19.20;39.70;;;-145.48;89.64;99117.03;5039741;28;20779;-80
2024/05/02 00:52:00;;;;;;;5.13;4.63;;;19.30;40.70;;;-145.48;89.58;99135.75;5039351;28;21010;-79
2024/05/02 00:54:26;;;;;;;8.60;5.30;;;19.20;40.10;;;-145.48;89.29;99135.75;5056198;28;20460;-79
2024/05/02 00:56:52;;;;;;;5.67;4.70;;;19.20;40.10;;;-145.48;89.64;99179.44;5039491;28;20563;-80
2024/05/02 00:59:20;;;;;;;5.50;4.40;;;19.20;40.20;;;-145.48;89.31;99142.00;5073025;28;20532;-78
2024/05/02 01:01:46;;;;;;;6.87;4.53;;;19.20;39.60;;;-145.48;89.36;99148.22;5056189;28;20276;-79
2024/05/02 01:04:12;;;;;;;5.17;4.73;;;19.20;39.10;;;-145.48;89.21;99156.56;5056111;28;20429;-80
2024/05/02 01:06:51;;;;;;;6.50;4.07;;;19.10;37.80;;;-145.48;89.44;99133.66;5056715;28;20183;-80
2024/05/02 01:09:17;;;;;;;7.40;5.20;;;19.00;38.60;;;-145.48;89.21;99158.63;5089626;28;20221;-80
2024/05/02 01:11:45;;;;;;;6.97;4.37;;;19.10;38.20;;;-145.48;88.96;99175.28;5056137;28;20432;-79
2024/05/02 01:14:12;;;;;;;7.70;4.50;;;19.00;37.20;;;-145.48;88.82;99154.47;5072351;28;20467;-79
2024/05/02 01:16:38;;;;;;;10.93;5.50;;;19.00;36.60;;;-145.48;89.00;99179.44;5039179;28;20531;-80
2024/05/02 01:19:04;;;;;;;4.60;4.20;;;18.90;37.20;;;-145.48;88.76;99166.97;5072482;28;20606;-80
2024/05/02 01:21:30;;;;;;;5.47;4.43;;;19.00;35.90;;;-145.48;88.89;99179.44;5069183;28;20195;-80
2024/05/02 01:23:56;;;;;;;10.40;4.30;;;19.00;37.00;;;-145.48;89.03;99185.69;5036297;28;20527;-80
2024/05/02 01:26:23;;;;;;;4.40;4.00;;;18.90;36.90;;;-145.48;88.97;99166.97;5036567;28;20183;-81
2024/05/02 01:28:49;;;;;;;4.60;4.20;;;18.90;36.90;;;-145.48;88.86;99169.03;5052878;28;20438;-80
2024/05/02 01:31:16;;;;;;;4.80;4.40;;;18.90;36.90;;;-145.48;88.62;99156.56;5052634;28;20433;-78
2024/05/02 01:33:42;;;;;;;4.70;4.20;;;18.90;35.50;;;-145.48;89.06;99171.13;5036028;28;20527;-79
2024/05/02 01:36:09;;;;;;;5.20;4.17;;;18.80;37.30;;;-145.48;89.04;99169.03;5035378;28;20527;-78
2024/05/02 01:38:36;;;;;;;4.73;4.13;;;18.80;38.00;;;-145.48;88.72;99191.94;5052031;28;20190;-79
2024/05/02 01:41:02;;;;;;;4.67;3.97;;;18.80;35.30;;;-145.48;88.84;99200.25;5088911;28;20463;-79
2024/05/02 01:43:28;;;;;;;4.43;4.03;;;18.70;36.00;;;-145.48;88.72;99185.69;5071884;28;20441;-80
2024/05/02 01:45:54;;;;;;;6.50;4.20;;;18.70;35.50;;;-145.48;88.54;99200.25;5071974;28;20804;-79
2024/05/02 01:48:20;;;;;;;6.70;5.03;;;18.70;34.70;;;-145.48;88.46;99179.44;5038571;28;20572;-79
2024/05/02 01:50:46;;;;;;;8.33;3.93;;;18.70;34.50;;;-145.48;88.24;99223.16;5071786;28;20183;-80
2024/05/02 01:53:16;;;;;;;4.00;3.70;;;18.70;32.30;;;-145.48;88.44;99221.06;5055213;28;20189;-79
2024/05/02 01:55:42;;;;;;;5.10;4.30;;;18.70;35.20;;;-145.48;88.61;99200.25;5054923;28;20242;-79
2024/05/02 01:58:08;;;;;;;4.97;4.00;;;18.60;34.20;;;-145.48;88.20;99189.84;5038602;28;20945;-79
2024/05/02 02:00:34;;;;;;;15.90;5.63;;;18.60;33.40;;;-145.48;88.37;99200.25;5055472;28;20216;-79
2024/05/02 02:03:00;;;;;;;5.37;4.43;;;18.60;33.90;;;-145.48;88.69;99229.38;5088379;28;20532;-80
2024/05/02 02:05:25;;;;;;;4.30;3.90;;;18.50;35.70;;;-145.48;88.98;99218.97;5054963;28;20179;-79
2024/05/02 02:07:51;;;;;;;5.33;4.83;;;18.50;36.90;;;-145.48;89.08;99227.31;5054799;28;20542;-80
2024/05/02 02:10:17;;;;;;;5.17;4.10;;;18.50;37.40;;;-145.48;88.62;99210.66;5046016;28;20281;-79
2024/05/02 02:12:43;;;;;;;9.73;5.00;;;18.50;36.20;;;-145.48;88.49;99229.38;5054159;28;20654;-80
2024/05/02 02:15:09;;;;;;;5.40;3.90;;;18.50;35.60;;;-145.48;88.78;99208.59;5071345;28;20206;-79
2024/05/02 02:17:34;;;;;;;5.37;4.40;;;18.40;36.20;;;-145.48;89.24;99266.84;5054224;28;20476;-80
2024/05/02 02:20:01;;;;;;;4.33;3.90;;;18.40;38.10;;;-145.48;89.20;99231.47;5054694;28;20186;-80
2024/05/02 02:22:27;;;;;;;4.13;3.63;;;18.40;37.70;;;-145.48;89.03;99241.88;5067786;28;20191;-79
2024/05/02 02:24:52;;;;;;;4.93;4.40;;;18.40;38.30;;;-145.48;89.00;99225.22;5067735;28;20492;-79
2024/05/02 02:27:18;;;;;;;4.10;3.80;;;18.30;38.20;;;-145.48;88.94;99248.13;5051101;28;20183;-79
2024/05/02 02:29:44;;;;;;;5.87;4.50;;;18.30;37.60;;;-145.48;89.39;99268.94;5067998;28;20216;-79
2024/05/02 02:32:10;;;;;;;5.00;4.60;;;18.30;39.70;;;-145.48;89.46;99262.69;5018020;28;20721;-80
2024/05/02 02:34:35;;;;;;;4.70;4.20;;;18.20;40.60;;;-145.48;89.12;99241.88;5034238;28;20206;-79
2024/05/02 02:37:01;;;;;;;4.93;4.43;;;18.20;38.40;;;-145.48;89.48;99252.28;5067670;28;20190;-79
2024/05/02 02:39:27;;;;;;;6.67;3.70;;;18.20;39.80;;;-145.48;89.71;99281.41;5056221;28;20185;-79
2024/05/02 02:41:54;;;;;;;4.50;4.10;;;18.20;40.90;;;-145.48;89.19;99266.84;5054337;28;20182;-79
2024/05/02 02:44:19;;;;;;;7.40;3.63;;;18.20;39.70;;;-145.48;89.31;99183.59;5054231;28;20639;-79
2024/05/02 02:46:45;;;;;;;6.43;4.10;;;18.20;40.00;;;-145.48;89.31;99254.38;5053768;28;20425;-79
2024/05/02 02:49:11;;;;;;;15.77;4.43;;;18.10;40.00;;;-145.48;89.66;99275.16;5070859;28;20311;-78
2024/05/02 02:51:37;;;;;;;8.30;4.53;;;18.10;42.00;;;-145.48;89.95;99250.19;5087480;28;20244;-79
2024/05/02 02:54:02;;;;;;;4.67;4.27;;;18.00;42.60;;;-145.48;89.71;99293.91;5053992;28;20183;-79
2024/05/02 02:56:28;;;;;;;5.90;4.30;;;18.10;42.70;;;-145.48;89.07;99262.69;5037318;28;20372;-80
2024/05/02 02:58:54;;;;;;;4.13;3.57;;;18.10;39.50;;;-145.48;89.44;99279.34;5037307;28;20194;-78
2024/05/02 03:01:20;;;;;;;5.80;4.17;;;18.00;39.60;;;-145.48;89.73;99283.50;5053768;28;20261;-80
2024/05/02 03:03:45;;;;;;;4.23;3.90;;;18.00;41.40;;;-145.48;89.79;99287.66;5037005;28;20170;-80
2024/05/02 03:06:19;;;;;;;4.93;4.43;;;17.90;42.80;;;-145.48;90.14;99295.97;5053951;28;20174;-80
2024/05/02 03:08:51;;;;;;;6.53;4.40;;;17.90;43.70;;;-145.48;90.13;99333.44;5070293;28;20210;-79
2024/05/02 03:11:17;;;;;;;4.67;3.50;;;17.80;44.40;;;-145.48;89.98;99275.16;5033711;28;20841;-79
2024/05/02 03:13:44;;;;;;;5.60;4.23;;;17.80;43.60;;;-145.48;90.25;99304.31;5033958;28;20442;-79
2024/05/02 03:16:11;;;;;;;4.53;4.13;;;17.80;44.80;;;-145.48;90.20;99320.94;5033895;28;20306;-79
2024/05/02 03:18:41;;;;;;;5.97;4.37;;;17.80;45.30;;;-145.48;90.50;99329.28;5017969;28;20534;-79
2024/05/02 03:21:09;;;;;;;4.77;4.33;;;17.70;46.20;;;-145.48;90.55;99323.03;5055345;28;20493;-79
2024/05/02 03:23:41;;;;;;;4.70;4.30;;;17.70;47.40;;;-145.48;90.67;99325.13;5070300;28;20765;-79
2024/05/02 03:26:10;;;;;;;5.70;4.90;;;17.70;48.40;;;-145.48;90.90;99325.13;5057974;28;20425;-79
2024/05/02 03:28:36;;;;;;;5.13;4.73;;;17.60;48.60;;;-145.48;91.38;99329.28;5057546;28;20500;-79
2024/05/02 03:31:05;;;;;;;5.77;3.73;;;17.60;50.90;;;-145.48;91.29;99350.09;5074532;28;20429;-79
2024/05/02 03:33:31;;;;;;;4.97;4.57;;;17.60;51.90;;;-145.48;91.28;99335.53;5057607;28;20220;-79
2024/05/02 03:35:56;;;;;;;5.53;4.33;;;17.60;50.10;;;-145.48;91.47;99308.47;5074190;28;20469;-79
2024/05/02 03:38:22;;;;;;;5.30;4.70;;;17.60;51.60;;;-145.48;91.55;99354.25;5057574;28;20448;-79
2024/05/02 03:40:48;;;;;;;6.50;4.20;;;17.50;51.30;;;-145.48;91.57;99387.53;5040683;28;20281;-78
2024/05/02 03:43:14;;;;;;;11.50;5.00;;;17.50;53.00;;;-145.48;91.39;99341.75;5074132;28;20424;-79
2024/05/02 03:45:40;;;;;;;5.07;4.57;;;17.50;51.80;;;-145.48;91.42;99358.41;5057250;28;20198;-78
2024/05/02 03:48:13;;;;;;;4.50;4.10;;;17.50;52.00;;;-145.48;91.63;99350.09;5057444;28;20185;-79
2024/05/02 03:50:38;;;;;;;4.73;4.17;;;17.50;52.30;;;-145.48;91.69;99358.41;5057294;28;20300;-80
2024/05/02 03:53:04;;;;;;;8.77;4.50;;;17.50;52.20;;;-145.48;91.42;99306.38;5040813;28;20631;-80
2024/05/02 03:55:30;;;;;;;7.73;4.73;;;17.50;51.30;;;-145.48;91.59;99323.03;5040406;28;20210;-79
2024/05/02 03:57:56;;;;;;;6.13;4.47;;;17.50;52.60;;;-145.48;91.89;99352.16;5073874;28;20217;-78
2024/05/02 04:00:22;;;;;;;5.57;5.00;;;17.40;53.10;;;-145.48;92.04;99350.09;5057108;28;20179;-80
2024/05/02 04:02:47;;;;;;;7.70;4.73;;;17.40;54.20;;;-145.48;91.72;99337.59;5057099;28;20175;-80
2024/05/02 04:05:14;;;;;;;4.77;4.23;;;17.40;52.90;;;-145.48;91.89;99368.81;5040168;28;20233;-80
2024/05/02 04:07:41;;;;;;;5.60;4.57;;;17.40;53.50;;;-145.48;91.73;99345.94;5090671;28;20186;-80
2024/05/02 04:10:08;;;;;;;5.23;4.00;;;17.40;53.60;;;-145.48;91.86;99339.69;5039986;28;20479;-79
2024/05/02 04:12:34;;;;;;;7.90;5.10;;;17.40;54.60;;;-145.48;91.97;99350.09;5057066;28;20471;-79
2024/05/02 04:15:00;;;;;;;10.63;5.43;;;17.40;53.70;;;-145.48;92.09;99354.25;5040176;28;20498;-78
2024/05/02 04:17:26;;;;;;;7.57;4.63;;;17.30;54.00;;;-145.48;92.21;99341.75;5073311;28;20226;-79
2024/05/02 04:19:51;;;;;;;4.90;4.43;;;17.30;55.20;;;-145.48;92.31;99387.53;5040247;28;20250;-79
2024/05/02 04:22:17;;;;;;;5.00;4.37;;;17.20;56.20;;;-145.48;92.51;99372.97;5056636;28;20183;-79
2024/05/02 04:24:43;;;;;;;6.40;4.50;;;17.20;56.80;;;-145.48;92.44;99362.56;5056398;28;20179;-79
2024/05/02 04:27:09;;;;;;;5.87;4.90;;;17.20;57.30;;;-145.48;92.32;99352.16;5056705;28;20540;-79
2024/05/02 04:29:35;;;;;;;7.70;5.63;;;17.20;55.60;;;-145.48;92.69;99383.38;5090528;28;20179;-79
2024/05/02 04:32:00;;;;;;;6.57;4.80;;;17.20;57.90;;;-145.48;92.34;99356.34;5056744;28;20669;-80
2024/05/02 04:34:26;;;;;;;5.50;4.33;;;17.30;56.80;;;-145.48;92.78;99360.50;5056206;28;20210;-79
2024/05/02 04:36:52;;;;;;;5.50;4.70;;;17.20;58.00;;;-145.48;92.77;99354.25;5056452;28;20197;-79
2024/05/02 04:39:22;;;;;;;9.67;6.30;;;17.20;58.50;;;-145.48;92.79;99379.22;5056342;28;20205;-79
2024/05/02 04:41:47;;;;;;;6.40;4.90;;;17.10;58.40;;;-145.48;92.86;99402.13;5058254;28;20466;-80
2024/05/02 04:44:13;;;;;;;9.90;4.50;;;17.20;59.00;;;-145.48;92.81;99348.00;5074357;28;20478;-80
2024/05/02 04:46:39;;;;;;;8.93;4.93;;;17.20;58.50;;;-145.48;92.82;99375.06;5057063;28;20198;-79
2024/05/02 04:49:05;;;;;;;8.60;4.70;;;17.20;58.20;;;-145.48;92.83;99370.91;5059943;28;20433;-79
2024/05/02 04:51:33;;;;;;;6.60;4.83;;;17.20;58.50;;;-145.48;92.86;99400.03;5039097;28;20703;-79
2024/05/02 04:54:00;;;;;;;7.10;5.20;;;17.20;59.10;;;-145.48;92.66;99339.69;5036874;28;20468;-79
2024/05/02 04:56:25;;;;;;;15.00;5.60;;;17.20;58.30;;;-145.48;93.01;99387.53;5069685;28;20927;-79
2024/05/02 04:58:51;;;;;;;5.40;4.63;;;17.20;59.50;;;-145.48;92.87;99391.72;5036312;28;20480;-79
2024/05/02 05:01:17;;;;;;;9.93;4.73;;;17.20;59.30;;;-145.48;93.01;99352.16;5019487;28;20562;-78
2024/05/02 05:03:43;;;;;;;6.63;5.10;;;17.20;60.20;;;-145.48;92.98;99387.53;5019110;28;20179;-78
2024/05/02 05:06:09;;;;;;;5.03;4.60;;;17.00;59.80;;;-145.48;92.71;99372.97;5019529;28;20429;-79
2024/05/02 05:08:35;;;;;;;9.10;5.80;;;17.20;58.50;;;-145.48;93.08;99391.72;5052283;28;20714;-78
2024/05/02 05:11:01;;;;;;;10.67;5.83;;;17.20;60.00;;;-145.48;93.09;99366.72;5053885;28;20516;-78
2024/05/02 05:13:26;;;;;;;5.87;5.27;;;17.20;60.60;;;-145.48;93.14;99333.44;5055976;28;20218;-79
2024/05/02 05:15:52;;;;;;;6.50;5.30;;;17.20;60.40;;;-145.48;93.16;99358.41;5055813;28;20199;-80
2024/05/02 05:18:18;;;;;;;8.20;5.97;;;17.20;60.70;;;-145.48;92.71;99366.72;5055445;28;20313;-79
2024/05/02 05:20:45;;;;;;;7.90;5.97;;;17.20;59.20;;;-145.48;92.64;99391.72;5055486;28;20280;-79
2024/05/02 05:23:15;;;;;;;12.40;5.93;;;17.30;58.50;;;-145.48;92.62;99345.94;5055560;28;20240;-78
2024/05/02 05:25:41;;;;;;;6.47;5.73;;;17.30;58.60;;;-145.48;92.59;99343.84;5071229;28;20436;-80
2024/05/02 05:28:06;;;;;;;6.23;4.70;;;17.30;57.70;;;-145.48;92.20;99325.13;5038992;28;20793;-79
2024/05/02 05:30:32;;;;;;;8.30;5.73;;;17.40;56.50;;;-145.48;92.15;99362.56;5071948;28;20251;-79
2024/05/02 05:32:58;;;;;;;7.10;5.80;;;17.40;56.50;;;-145.48;92.12;99354.25;5055239;28;20266;-79
2024/05/02 05:35:24;;;;;;;9.20;5.37;;;17.40;56.70;;;-145.48;91.75;99354.25;5038498;28;20211;-79
2024/05/02 05:37:50;;;;;;;6.70;5.70;;;17.50;54.70;;;-145.48;91.86;99333.44;5055310;28;20475;-79
2024/05/02 05:40:15;;;;;;;6.13;5.47;;;17.50;54.20;;;-145.48;91.69;99320.94;5046562;28;20185;-79
2024/05/02 05:42:43;;;;;;;10.53;5.87;;;17.50;53.60;;;-145.48;91.62;99335.53;5054958;28;20643;-79
2024/05/02 05:45:08;;;;;;;8.07;5.63;;;17.50;53.80;;;-145.48;91.32;99383.38;5054926;28;20182;-80
2024/05/02 05:47:37;;;;;;;5.80;5.20;;;17.50;52.20;;;-145.48;91.48;99318.88;5054411;28;20938;-80
2024/05/02 05:50:05;;;;;;;13.90;11.10;;;17.60;53.20;;;-145.48;91.71;99308.47;5054928;28;20179;-79
2024/05/02 05:52:32;;;;;;;10.53;5.90;;;17.60;53.70;;;-145.48;91.52;99354.25;5053276;28;20454;-80
2024/05/02 05:54:58;;;;;;;10.90;5.60;;;17.60;53.00;;;-145.48;91.99;99329.28;5051970;28;20465;-81
2024/05/02 05:57:24;;;;;;;8.17;5.13;;;17.60;55.10;;;-145.48;91.95;99325.13;5068441;28;20558;-80
2024/05/02 05:59:49;;;;;;;6.87;6.27;;;17.60;55.90;;;-145.48;91.79;99287.66;5035310;28;20613;-80
2024/05/02 06:02:18;;;;;;;8.97;6.53;;;17.60;55.60;;;-145.48;91.42;99368.81;5019315;28;20176;-80
2024/05/02 06:04:45;;;;;;;10.73;5.80;;;17.70;52.40;;;-145.48;91.52;99300.16;5068747;28;20180;-81
2024/05/02 06:07:11;;;;;;;6.60;5.70;;;17.70;52.90;;;-145.48;91.87;99320.94;5034982;28;20523;-80
2024/05/02 06:09:37;;;;;;;10.20;6.00;;;17.70;54.80;;;-145.48;91.60;99337.59;5024804;28;20946;-79
2024/05/02 06:12:03;;;;;;;7.37;6.33;;;17.70;53.70;;;-145.48;91.56;99333.44;5054838;28;20183;-81
2024/05/02 06:14:29;;;;;;;7.17;5.73;;;17.70;53.20;;;-145.48;92.07;99271.00;5070982;28;20202;-81
2024/05/02 06:16:55;;;;;;;7.10;6.10;;;17.70;56.00;;;-145.48;91.93;99298.06;5054465;28;20834;-80
2024/05/02 06:19:22;;;;;;;5.93;5.33;;;17.80;56.20;;;-145.48;91.66;99354.25;5088155;28;20233;-80
2024/05/02 06:21:48;;;;;;;7.43;6.00;;;17.80;54.70;;;-145.48;91.27;99281.41;5088039;28;20182;-80
2024/05/02 06:24:14;;;;;;;9.13;7.70;;;17.90;52.90;;;-145.48;91.38;99262.69;5054334;28;20795;-80
2024/05/02 06:26:40;;;;;;;9.17;6.03;;;17.80;52.90;;;-145.48;91.27;99266.84;5038549;28;20225;-81
2024/05/02 06:29:06;;;;;;;7.83;6.20;;;18.00;53.00;;;-145.48;90.87;99275.16;5054837;28;20182;-80
2024/05/02 06:31:31;;;;;;;10.07;6.07;;;18.10;51.30;;;-145.48;90.44;99241.88;5088918;28;20632;-81
2024/05/02 06:33:57;;;;;;;9.37;5.97;;;18.20;47.90;;;-145.48;90.60;99246.03;5070960;28;20178;-80
2024/05/02 06:36:23;;;;;;;5.93;5.03;;;18.20;48.50;;;-145.48;90.37;99241.88;5054325;28;20206;-80
2024/05/02 06:38:49;;;;;;;6.93;5.80;;;18.30;48.00;;;-145.48;89.75;99229.38;5037748;28;20178;-79
2024/05/02 06:41:15;;;;;;;25.73;8.90;;;18.40;44.50;;;-145.48;89.29;99171.13;5038073;28;20528;-79
2024/05/02 06:43:41;;;;;;;9.07;5.50;;;18.50;42.00;;;-145.48;89.20;99243.97;5071047;28;20175;-80
2024/05/02 06:46:07;;;;;;;9.30;5.50;;;18.50;41.40;;;-145.48;89.53;99225.22;5071155;28;20954;-78
2024/05/02 06:48:33;;;;;;;6.27;5.67;;;18.60;43.50;;;-145.48;89.24;99233.56;5054591;28;20228;-79
2024/05/02 06:51:01;;;;;;;8.23;5.93;;;18.60;41.80;;;-145.48;89.41;99200.25;5068461;28;20450;-80
2024/05/02 06:53:27;;;;;;;6.87;4.63;;;18.60;42.50;;;-145.48;89.46;99204.41;5068275;28;20233;-79
2024/05/02 06:55:53;;;;;;;6.37;5.77;;;18.70;42.50;;;-145.48;89.20;99175.28;5068446;28;20473;-80
2024/05/02 06:58:20;;;;;;;7.27;5.33;;;18.70;41.30;;;-145.48;88.55;99221.06;5051764;28;20179;-79
2024/05/02 07:00:46;;;;;;;9.43;5.93;;;18.80;38.10;;;-145.48;88.81;99208.59;5050792;28;20187;-79
2024/05/02 07:03:12;;;;;;;6.00;5.37;;;18.80;38.40;;;-145.48;88.37;99171.13;5035486;28;20647;-79
2024/05/02 07:05:39;;;;;;;7.53;5.53;;;18.90;37.00;;;-145.48;88.48;99112.84;5068413;28;20799;-80
2024/05/02 07:08:12;;;;;;;7.03;6.33;;;19.00;37.70;;;-145.48;88.67;99154.47;5051681;28;20441;-80
2024/05/02 07:10:38;;;;;;;6.27;5.60;;;19.10;38.60;;;-145.48;87.85;99121.19;5056417;28;20453;-78
2024/05/02 07:13:04;;;;;;;6.07;5.47;;;19.10;35.40;;;-145.48;87.23;99083.72;5072239;28;20435;-78
2024/05/02 07:15:30;;;;;;;8.70;5.83;;;19.20;30.30;;;-145.48;86.84;99148.22;5054582;28;20568;-79
2024/05/02 07:17:56;;;;;;;10.43;5.80;;;19.30;28.20;;;-145.48;86.78;99108.69;5088327;28;20462;-80
2024/05/02 07:20:25;;;;;;;6.97;5.80;;;19.30;27.70;;;-145.48;86.68;99156.56;5056098;28;20189;-79
2024/05/02 07:22:52;;;;;;;9.27;5.63;;;19.30;26.80;;;-145.48;86.43;99092.06;5053127;28;20199;-80
2024/05/02 07:25:17;;;;;;;10.00;5.90;;;19.40;26.30;;;-145.48;86.30;99121.19;5036669;28;20946;-79
2024/05/02 07:27:43;;;;;;;8.87;6.73;;;19.40;26.00;;;-145.48;85.86;99110.78;5052096;28;20468;-80
2024/05/02 07:30:10;;;;;;;6.07;5.50;;;19.50;25.00;;;-145.48;85.76;99133.66;5018553;28;20746;-80
2024/05/02 07:32:37;;;;;;;6.80;5.80;;;19.60;24.10;;;-145.48;85.16;99058.75;5019987;28;20458;-79
2024/05/02 07:35:04;;;;;;;8.83;7.87;;;19.70;19.80;;;-145.48;85.41;99023.38;5054118;28;20491;-80
2024/05/02 07:37:30;;;;;;;5.83;5.33;;;19.70;21.90;;;-145.48;85.58;99100.38;5037298;28;20430;-79
2024/05/02 07:39:56;;;;;;;6.70;5.90;;;19.70;22.90;;;-145.48;85.72;99114.94;5027416;28;20482;-80
2024/05/02 07:42:22;;;;;;;10.00;6.93;;;19.70;22.70;;;-145.48;85.67;99089.97;5070881;28;20179;-76
2024/05/02 07:44:48;;;;;;;7.77;6.03;;;19.70;22.60;;;-145.48;86.00;99040.03;5052849;28;20182;-78
2024/05/02 07:47:14;;;;;;;8.50;6.00;;;19.80;24.30;;;-145.48;86.35;99065.00;5052686;28;20213;-77
2024/05/02 07:49:40;;;;;;;7.87;7.07;;;19.80;25.70;;;-145.48;85.90;99058.75;5052733;28;20464;-76
2024/05/02 07:52:06;;;;;;;9.20;7.63;;;19.90;24.80;;;-145.48;85.36;99012.97;5050778;28;20276;-79
2024/05/02 07:54:32;;;;;;;7.20;6.00;;;20.00;22.80;;;-145.48;84.63;99012.97;5034794;28;20218;-79
2024/05/02 07:56:58;;;;;;;7.13;5.70;;;20.10;19.10;;;-145.48;84.74;99042.09;5017432;28;20825;-80
2024/05/02 07:59:24;;;;;;;12.20;5.20;;;20.10;19.10;;;-145.48;84.19;99062.91;5067805;28;20445;-80
2024/05/02 08:01:50;;;;;;;8.10;5.53;;;20.20;16.80;;;-145.48;83.76;99025.47;5067525;28;20207;-79
2024/05/02 08:04:16;;;;;;;11.07;8.40;;;20.20;14.00;;;-145.48;83.74;99033.78;5017037;28;20184;-79
2024/05/02 08:06:42;;;;;;;9.93;7.20;;;20.30;14.10;;;-145.48;83.18;98996.34;5050958;28;20192;-81
2024/05/02 08:09:10;;;;;;;11.00;6.43;;;20.40;10.20;;;-145.48;81.73;98967.19;5069263;28;20452;-81
2024/05/02 08:11:36;;;;;;;8.93;7.77;;;20.40;2.90;;;-145.48;81.91;98988.00;5056704;28;20202;-80
2024/05/02 08:14:02;;;;;;;10.27;6.77;;;20.50;4.00;;;-145.48;82.28;99008.81;5090188;28;20964;-79
2024/05/02 08:16:28;;;;;;;10.30;8.60;;;20.50;6.00;;;-145.48;82.50;98977.59;5056947;28;20851;-80
2024/05/02 08:18:55;;;;;;;8.03;5.80;;;20.50;7.60;;;-145.48;82.33;98969.28;5060225;28;20479;-81
2024/05/02 08:21:21;;;;;;;5.23;4.57;;;20.60;7.10;;;-145.48;81.27;98936.00;5072827;28;20187;-79
2024/05/02 08:23:47;;;;;;;5.60;5.10;;;20.70;3.10;;;-145.48;81.02;98950.56;5087371;28;20434;-83
2024/05/02 08:26:12;;;;;;;8.03;5.10;;;20.70;1.00;;;-145.48;80.56;98902.69;5054956;28;20182;-84
2024/05/02 08:28:39;;;;;;;9.23;6.57;;;20.80;1.00;;;-145.48;80.37;98938.06;5072834;28;20191;-83
2024/05/02 08:31:08;;;;;;;7.73;5.50;;;20.90;1.00;;;-145.48;79.75;98942.22;5056311;28;20187;-82
2024/05/02 08:33:34;;;;;;;6.27;5.77;;;21.00;1.00;;;-145.48;80.13;98881.88;5058290;28;20441;-84
2024/05/02 08:36:00;;;;;;;8.10;6.47;;;21.00;1.00;;;-145.48;80.36;98938.06;5021550;28;20495;-83
2024/05/02 08:38:26;;;;;;;6.73;6.10;;;21.00;1.00;;;-145.48;79.76;98917.25;5073545;28;20421;-85
2024/05/02 08:40:53;;;;;;;6.43;5.43;;;21.00;1.00;;;-145.48;79.58;98917.25;5039156;28;20193;-82
2024/05/02 08:43:20;;;;;;;8.30;6.13;;;21.10;1.00;;;-145.48;78.38;98875.66;5058331;28;20201;-83
2024/05/02 08:45:48;;;;;;;9.20;6.13;;;21.20;1.00;;;-145.48;77.11;98867.31;5090591;28;20511;-83
2024/05/02 08:48:15;;;;;;;6.63;6.00;;;21.30;1.00;;;-145.48;75.29;98875.66;5090571;28;20492;-83
2024/05/02 08:50:46;;;;;;;17.23;9.10;;;21.30;1.00;;;-145.48;74.50;98859.00;5075810;28;20478;-82
2024/05/02 08:53:12;;;;;;;7.10;5.90;;;21.40;1.00;;;-145.48;74.73;98827.78;5042401;28;20447;-83
2024/05/02 08:55:42;;;;;;;6.57;5.17;;;21.40;1.00;;;-145.48;75.09;98836.09;5075518;28;20476;-84
2024/05/02 08:58:09;;;;;;;17.93;13.80;;;21.50;1.00;;;-145.48;74.18;98865.25;5058716;28;20527;-83
2024/05/02 09:00:36;;;;;;;6.40;5.73;;;21.50;1.00;;;-145.48;73.76;98850.69;5041538;28;20528;-83
2024/05/02 09:03:03;;;;;;;9.50;5.80;;;21.60;1.00;;;-145.48;73.73;98840.28;5025337;28;20441;-83
2024/05/02 09:05:31;;;;;;;5.63;5.13;;;21.70;1.00;;;-145.48;73.62;98813.22;5041381;28;20469;-82
2024/05/02 09:07:58;;;;;;;6.87;6.23;;;21.70;1.00;;;-145.48;73.47;98809.06;5075136;28;20439;-82
2024/05/02 09:10:24;;;;;;;8.50;7.80;;;21.70;1.00;;;-145.48;72.89;98754.97;5048361;28;20464;-82
2024/05/02 09:12:51;;;;;;;9.50;8.50;;;21.70;1.00;;;-145.48;72.43;98802.81;5074048;28;20428;-83
2024/05/02 09:15:17;;;;;;;11.93;7.70;;;21.80;1.00;;;-145.48;72.77;98763.28;5057663;28;20209;-83
2024/05/02 09:17:45;;;;;;;16.90;15.10;;;21.80;1.00;;;-145.48;72.66;98819.47;5041312;28;20510;-83
2024/05/02 09:20:14;;;;;;;8.83;7.87;;;21.90;1.00;;;-145.48;70.82;98786.16;5039677;28;20443;-83
2024/05/02 09:22:41;;;;;;;8.90;6.40;;;21.90;1.00;;;-145.48;70.04;98752.88;5054161;28;20467;-82
2024/05/02 09:25:12;;;;;;;6.70;6.00;;;22.00;1.00;;;-145.48;70.14;98763.28;5073538;28;20436;-83
2024/05/02 09:27:44;;;;;;;10.20;7.30;;;22.00;1.00;;;-145.48;69.48;98754.97;5088732;28;20441;-82
2024/05/02 09:30:11;;;;;;;8.20;7.40;;;22.20;1.00;;;-145.48;68.03;98754.97;5072385;28;20428;-83
2024/05/02 09:32:37;;;;;;;9.03;6.10;;;22.20;1.00;;;-145.48;67.63;98763.28;5055115;28;20429;-84
2024/05/02 09:35:03;;;;;;;5.23;4.70;;;22.30;1.00;;;-145.48;67.57;98725.84;5088888;28;20464;-83
2024/05/02 09:37:44;;;;;;;9.83;6.87;;;22.20;1.00;;;-145.48;68.05;98655.09;5038676;28;20575;-83
2024/05/02 09:40:12;;;;;;;9.80;7.27;;;22.60;1.00;;;-145.48;68.32;98663.41;5055711;28;20789;-83
2024/05/02 09:42:39;;;;;;;10.67;9.77;;;22.70;1.00;;;-145.48;67.96;98650.94;5055841;28;20441;-83
2024/05/02 09:45:08;;;;;;;5.80;5.20;;;22.80;1.00;;;-145.48;66.32;98675.91;5038938;28;20956;-84
2024/05/02 09:47:57;;;;;;;6.83;5.00;;;22.90;1.00;;;-145.48;67.36;98628.03;5071284;28;20420;-82
2024/05/02 09:50:25;;;;;;;15.00;13.23;;;22.90;1.00;;;-145.48;66.56;98594.75;5054906;28;20437;-81
2024/05/02 09:52:59;;;;;;;7.40;6.70;;;23.00;1.00;;;-145.48;66.03;98628.03;5051969;28;20437;-79
2024/05/02 09:55:25;;;;;;;6.87;6.10;;;23.00;1.00;;;-145.48;65.09;98621.81;5052635;28;20473;-81
2024/05/02 09:57:52;;;;;;;7.50;5.47;;;23.10;1.00;;;-145.48;65.27;98634.28;5086593;28;20505;-80
2024/05/02 10:00:18;;;;;;;8.20;4.90;;;23.10;1.00;;;-145.48;66.39;98617.66;5084518;28;20431;-80
2024/05/02 10:02:47;;;;;;;6.13;5.50;;;23.10;1.00;;;-145.48;64.17;98625.97;5084251;28;20926;-80